sensor_id;sensor_type;location;lat;lon;timestamp;pressure;altitude;pressure_sealevel;temperature
19102;BMP280;9683;49.028;12.064;2022-07-12T00:00:38;97858.56;;;19.57
19102;BMP280;9683;49.028;12.064;2022-07-12T00:03:05;97858.00;;;19.60
19102;BMP280;9683;49.028;12.064;2022-07-12T00:05:32;97871.22;;;19.61
19102;BMP280;9683;49.028;12.064;2022-07-12T00:07:58;97864.75;;;19.57
19102;BMP280;9683;49.028;12.064;2022-07-12T00:10:26;97869.06;;;19.48
19102;BMP280;9683;49.028;12.064;2022-07-12T00:12:53;97869.75;;;19.34
19102;BMP280;9683;49.028;12.064;2022-07-12T00:15:20;97868.63;;;19.24
19102;BMP280;9683;49.028;12.064;2022-07-12T00:17:47;97863.19;;;19.14
19102;BMP280;9683;49.028;12.064;2022-07-12T00:20:13;97853.72;;;19.12
19102;BMP280;9683;49.028;12.064;2022-07-12T00:22:40;97860.75;;;19.13
19102;BMP280;9683;49.028;12.064;2022-07-12T00:25:08;97861.81;;;19.12
19102;BMP280;9683;49.028;12.064;2022-07-12T00:27:36;97855.34;;;19.13
19102;BMP280;9683;49.028;12.064;2022-07-12T00:30:03;97862.09;;;19.10
19102;BMP280;9683;49.028;12.064;2022-07-12T00:32:30;97864.47;;;19.07
19102;BMP280;9683;49.028;12.064;2022-07-12T00:34:57;97869.59;;;19.03
19102;BMP280;9683;49.028;12.064;2022-07-12T00:37:24;97869.03;;;18.96
19102;BMP280;9683;49.028;12.064;2022-07-12T00:39:50;97869.28;;;18.95
19102;BMP280;9683;49.028;12.064;2022-07-12T00:42:17;97869.22;;;18.85
19102;BMP280;9683;49.028;12.064;2022-07-12T00:44:45;97864.56;;;18.75
19102;BMP280;9683;49.028;12.064;2022-07-12T00:47:21;97864.28;;;18.71
19102;BMP280;9683;49.028;12.064;2022-07-12T00:49:50;97859.91;;;18.65
19102;BMP280;9683;49.028;12.064;2022-07-12T00:52:17;97866.41;;;18.64
19102;BMP280;9683;49.028;12.064;2022-07-12T00:54:44;97855.84;;;18.63
19102;BMP280;9683;49.028;12.064;2022-07-12T00:57:11;97861.78;;;18.65
19102;BMP280;9683;49.028;12.064;2022-07-12T00:59:37;97861.00;;;18.64
19102;BMP280;9683;49.028;12.064;2022-07-12T01:02:05;97865.59;;;18.64
19102;BMP280;9683;49.028;12.064;2022-07-12T01:04:32;97858.81;;;18.61
19102;BMP280;9683;49.028;12.064;2022-07-12T01:06:59;97863.09;;;18.57
19102;BMP280;9683;49.028;12.064;2022-07-12T01:09:26;97859.53;;;18.52
19102;BMP280;9683;49.028;12.064;2022-07-12T01:11:54;97860.03;;;18.49
19102;BMP280;9683;49.028;12.064;2022-07-12T01:14:20;97860.31;;;18.47
19102;BMP280;9683;49.028;12.064;2022-07-12T01:16:48;97860.03;;;18.49
19102;BMP280;9683;49.028;12.064;2022-07-12T01:19:20;97865.16;;;18.50
19102;BMP280;9683;49.028;12.064;2022-07-12T01:21:47;97864.31;;;18.45
19102;BMP280;9683;49.028;12.064;2022-07-12T01:24:15;97863.78;;;18.43
19102;BMP280;9683;49.028;12.064;2022-07-12T01:26:42;97857.75;;;18.36
19102;BMP280;9683;49.028;12.064;2022-07-12T01:29:09;97859.09;;;18.33
19102;BMP280;9683;49.028;12.064;2022-07-12T01:31:36;97853.13;;;18.31
19102;BMP280;9683;49.028;12.064;2022-07-12T01:34:03;97852.06;;;18.32
19102;BMP280;9683;49.028;12.064;2022-07-12T01:36:32;97856.16;;;18.35
19102;BMP280;9683;49.028;12.064;2022-07-12T01:38:59;97860.47;;;18.36
19102;BMP280;9683;49.028;12.064;2022-07-12T01:41:27;97861.28;;;18.36
19102;BMP280;9683;49.028;12.064;2022-07-12T01:43:54;97860.97;;;18.32
19102;BMP280;9683;49.028;12.064;2022-07-12T01:46:21;97859.06;;;18.28
19102;BMP280;9683;49.028;12.064;2022-07-12T01:48:47;97856.34;;;18.28
19102;BMP280;9683;49.028;12.064;2022-07-12T01:51:14;97863.91;;;18.31
19102;BMP280;9683;49.028;12.064;2022-07-12T01:53:41;97853.97;;;18.31
19102;BMP280;9683;49.028;12.064;2022-07-12T01:56:07;97853.41;;;18.29
19102;BMP280;9683;49.028;12.064;2022-07-12T01:58:36;97851.53;;;18.30
19102;BMP280;9683;49.028;12.064;2022-07-12T02:01:03;97850.44;;;18.31
19102;BMP280;9683;49.028;12.064;2022-07-12T02:03:34;97846.44;;;18.33
19102;BMP280;9683;49.028;12.064;2022-07-12T02:06:00;97848.06;;;18.35
19102;BMP280;9683;49.028;12.064;2022-07-12T02:08:28;97850.50;;;18.36
19102;BMP280;9683;49.028;12.064;2022-07-12T02:10:54;97852.13;;;18.37
19102;BMP280;9683;49.028;12.064;2022-07-12T02:13:21;97847.53;;;18.38
19102;BMP280;9683;49.028;12.064;2022-07-12T02:15:49;97852.69;;;18.39
19102;BMP280;9683;49.028;12.064;2022-07-12T02:18:16;97852.69;;;18.39
19102;BMP280;9683;49.028;12.064;2022-07-12T02:20:43;97842.97;;;18.38
19102;BMP280;9683;49.028;12.064;2022-07-12T02:23:09;97845.66;;;18.38
19102;BMP280;9683;49.028;12.064;2022-07-12T02:25:36;97846.22;;;18.40
19102;BMP280;9683;49.028;12.064;2022-07-12T02:28:03;97847.59;;;18.43
19102;BMP280;9683;49.028;12.064;2022-07-12T02:30:29;97850.00;;;18.44
19102;BMP280;9683;49.028;12.064;2022-07-12T02:32:57;97853.00;;;18.48
19102;BMP280;9683;49.028;12.064;2022-07-12T02:35:24;97852.22;;;18.47
19102;BMP280;9683;49.028;12.064;2022-07-12T02:37:51;97853.53;;;18.45
19102;BMP280;9683;49.028;12.064;2022-07-12T02:40:17;97851.06;;;18.38
19102;BMP280;9683;49.028;12.064;2022-07-12T02:43:01;97855.88;;;18.36
19102;BMP280;9683;49.028;12.064;2022-07-12T02:45:29;97855.34;;;18.34
19102;BMP280;9683;49.028;12.064;2022-07-12T02:47:55;97861.78;;;18.33
19102;BMP280;9683;49.028;12.064;2022-07-12T02:50:23;97857.22;;;18.33
19102;BMP280;9683;49.028;12.064;2022-07-12T02:52:50;97855.84;;;18.31
19102;BMP280;9683;49.028;12.064;2022-07-12T02:55:17;97858.53;;;18.31
19102;BMP280;9683;49.028;12.064;2022-07-12T02:57:43;97855.59;;;18.32
19102;BMP280;9683;49.028;12.064;2022-07-12T03:00:11;97862.34;;;18.35
19102;BMP280;9683;49.028;12.064;2022-07-12T03:02:38;97859.41;;;18.37
19102;BMP280;9683;49.028;12.064;2022-07-12T03:05:06;97860.72;;;18.34
19102;BMP280;9683;49.028;12.064;2022-07-12T03:07:34;97866.06;;;18.29
19102;BMP280;9683;49.028;12.064;2022-07-12T03:10:00;97857.94;;;18.24
19102;BMP280;9683;49.028;12.064;2022-07-12T03:12:27;97856.81;;;18.20
19102;BMP280;9683;49.028;12.064;2022-07-12T03:14:54;97863.78;;;18.16
19102;BMP280;9683;49.028;12.064;2022-07-12T03:17:20;97867.50;;;18.10
19102;BMP280;9683;49.028;12.064;2022-07-12T03:19:47;97863.97;;;18.04
19102;BMP280;9683;49.028;12.064;2022-07-12T03:22:13;97871.47;;;18.02
19102;BMP280;9683;49.028;12.064;2022-07-12T03:24:41;97868.53;;;18.04
19102;BMP280;9683;49.028;12.064;2022-07-12T03:27:08;97873.88;;;17.99
19102;BMP280;9683;49.028;12.064;2022-07-12T03:29:35;97877.03;;;17.91
19102;BMP280;9683;49.028;12.064;2022-07-12T03:32:02;97878.03;;;17.84
19102;BMP280;9683;49.028;12.064;2022-07-12T03:34:28;97873.66;;;17.78
19102;BMP280;9683;49.028;12.064;2022-07-12T03:36:55;97886.81;;;17.75
19102;BMP280;9683;49.028;12.064;2022-07-12T03:39:22;97886.19;;;17.68
19102;BMP280;9683;49.028;12.064;2022-07-12T03:41:50;97882.94;;;17.66
19102;BMP280;9683;49.028;12.064;2022-07-12T03:44:16;97882.38;;;17.64
19102;BMP280;9683;49.028;12.064;2022-07-12T03:46:43;97894.22;;;17.63
19102;BMP280;9683;49.028;12.064;2022-07-12T03:49:10;97889.31;;;17.60
19102;BMP280;9683;49.028;12.064;2022-07-12T03:51:37;97893.31;;;17.57
19102;BMP280;9683;49.028;12.064;2022-07-12T03:54:04;97896.00;;;17.57
19102;BMP280;9683;49.028;12.064;2022-07-12T03:56:32;97897.69;;;17.58
19102;BMP280;9683;49.028;12.064;2022-07-12T03:59:18;97897.69;;;17.58
19102;BMP280;9683;49.028;12.064;2022-07-12T04:01:45;97892.44;;;17.52
19102;BMP280;9683;49.028;12.064;2022-07-12T04:04:12;97892.13;;;17.48
19102;BMP280;9683;49.028;12.064;2022-07-12T04:06:38;97893.75;;;17.49
19102;BMP280;9683;49.028;12.064;2022-07-12T04:09:05;97893.25;;;17.52
19102;BMP280;9683;49.028;12.064;2022-07-12T04:11:32;97893.19;;;17.47
19102;BMP280;9683;49.028;12.064;2022-07-12T04:13:59;97891.50;;;17.41
19102;BMP280;9683;49.028;12.064;2022-07-12T04:16:27;97902.13;;;17.31
19102;BMP280;9683;49.028;12.064;2022-07-12T04:18:55;97896.63;;;17.21
19102;BMP280;9683;49.028;12.064;2022-07-12T04:21:21;97907.31;;;17.16
19102;BMP280;9683;49.028;12.064;2022-07-12T04:23:48;97898.13;;;17.12
19102;BMP280;9683;49.028;12.064;2022-07-12T04:26:15;97901.03;;;17.10
19102;BMP280;9683;49.028;12.064;2022-07-12T04:28:41;97898.94;;;17.12
19102;BMP280;9683;49.028;12.064;2022-07-12T04:31:08;97906.50;;;17.15
19102;BMP280;9683;49.028;12.064;2022-07-12T04:33:36;97898.25;;;17.22
19102;BMP280;9683;49.028;12.064;2022-07-12T04:36:03;97899.13;;;17.27
19102;BMP280;9683;49.028;12.064;2022-07-12T04:38:30;97896.75;;;17.31
19102;BMP280;9683;49.028;12.064;2022-07-12T04:40:57;97899.75;;;17.34
19102;BMP280;9683;49.028;12.064;2022-07-12T04:43:23;97901.38;;;17.35
19102;BMP280;9683;49.028;12.064;2022-07-12T04:45:50;97905.50;;;17.43
19102;BMP280;9683;49.028;12.064;2022-07-12T04:48:17;97908.53;;;17.47
19102;BMP280;9683;49.028;12.064;2022-07-12T04:50:45;97910.09;;;17.42
19102;BMP280;9683;49.028;12.064;2022-07-12T04:53:12;97907.66;;;17.41
19102;BMP280;9683;49.028;12.064;2022-07-12T04:55:38;97910.09;;;17.42
19102;BMP280;9683;49.028;12.064;2022-07-12T04:58:05;97922.38;;;17.33
19102;BMP280;9683;49.028;12.064;2022-07-12T05:00:31;97921.28;;;17.34
19102;BMP280;9683;49.028;12.064;2022-07-12T05:02:58;97918.03;;;17.32
19102;BMP280;9683;49.028;12.064;2022-07-12T05:05:25;97928.31;;;17.35
19102;BMP280;9683;49.028;12.064;2022-07-12T05:07:53;97924.63;;;17.41
19102;BMP280;9683;49.028;12.064;2022-07-12T05:10:19;97923.97;;;17.34
19102;BMP280;9683;49.028;12.064;2022-07-12T05:12:46;97921.88;;;17.36
19102;BMP280;9683;49.028;12.064;2022-07-12T05:15:12;97926.06;;;17.49
19102;BMP280;9683;49.028;12.064;2022-07-12T05:17:39;97931.84;;;17.58
19102;BMP280;9683;49.028;12.064;2022-07-12T05:20:07;97932.78;;;17.68
19102;BMP280;9683;49.028;12.064;2022-07-12T05:22:33;97937.69;;;17.71
19102;BMP280;9683;49.028;12.064;2022-07-12T05:25:01;97938.00;;;17.75
19102;BMP280;9683;49.028;12.064;2022-07-12T05:27:28;97932.53;;;17.70
19102;BMP280;9683;49.028;12.064;2022-07-12T05:29:56;97933.88;;;17.67
19102;BMP280;9683;49.028;12.064;2022-07-12T05:32:22;97938.91;;;17.64
19102;BMP280;9683;49.028;12.064;2022-07-12T05:34:49;97935.81;;;17.55
19102;BMP280;9683;49.028;12.064;2022-07-12T05:37:16;97940.47;;;17.60
19102;BMP280;9683;49.028;12.064;2022-07-12T05:39:42;97937.34;;;17.68
19102;BMP280;9683;49.028;12.064;2022-07-12T05:42:10;97939.88;;;17.74
19102;BMP280;9683;49.028;12.064;2022-07-12T05:44:37;97944.81;;;17.82
19102;BMP280;9683;49.028;12.064;2022-07-12T05:47:03;97948.88;;;17.85
19102;BMP280;9683;49.028;12.064;2022-07-12T05:49:30;97947.81;;;17.86
19102;BMP280;9683;49.028;12.064;2022-07-12T05:51:57;97931.41;;;17.88
19102;BMP280;9683;49.028;12.064;2022-07-12T05:54:41;97943.31;;;17.92
19102;BMP280;9683;49.028;12.064;2022-07-12T05:57:07;97941.47;;;17.97
19102;BMP280;9683;49.028;12.064;2022-07-12T05:59:35;97950.44;;;18.03
19102;BMP280;9683;49.028;12.064;2022-07-12T06:02:02;97944.22;;;18.02
19102;BMP280;9683;49.028;12.064;2022-07-12T06:04:29;97942.84;;;18.00
19102;BMP280;9683;49.028;12.064;2022-07-12T06:06:56;97950.72;;;18.06
19102;BMP280;9683;49.028;12.064;2022-07-12T06:09:22;97957.31;;;18.15
19102;BMP280;9683;49.028;12.064;2022-07-12T06:11:49;97945.75;;;18.20
19102;BMP280;9683;49.028;12.064;2022-07-12T06:14:16;97951.75;;;18.27
19102;BMP280;9683;49.028;12.064;2022-07-12T06:16:44;97954.56;;;18.37
19102;BMP280;9683;49.028;12.064;2022-07-12T06:19:11;97944.91;;;18.41
19102;BMP280;9683;49.028;12.064;2022-07-12T06:21:37;97947.69;;;18.51
19102;BMP280;9683;49.028;12.064;2022-07-12T06:24:04;97953.97;;;18.57
19102;BMP280;9683;49.028;12.064;2022-07-12T06:26:31;97950.50;;;18.61
19102;BMP280;9683;49.028;12.064;2022-07-12T06:28:58;97962.69;;;18.69
19102;BMP280;9683;49.028;12.064;2022-07-12T06:31:24;97957.34;;;18.74
19102;BMP280;9683;49.028;12.064;2022-07-12T06:33:52;97953.69;;;18.85
19102;BMP280;9683;49.028;12.064;2022-07-12T06:36:19;97953.19;;;18.93
19102;BMP280;9683;49.028;12.064;2022-07-12T06:38:45;97964.88;;;19.04
19102;BMP280;9683;49.028;12.064;2022-07-12T06:41:12;97961.41;;;19.08
19102;BMP280;9683;49.028;12.064;2022-07-12T06:43:39;97960.66;;;19.18
19102;BMP280;9683;49.028;12.064;2022-07-12T06:46:06;97964.19;;;19.23
19102;BMP280;9683;49.028;12.064;2022-07-12T06:48:33;97959.63;;;19.29
19102;BMP280;9683;49.028;12.064;2022-07-12T06:51:01;97955.38;;;19.38
19102;BMP280;9683;49.028;12.064;2022-07-12T06:53:27;97953.72;;;19.32
19102;BMP280;9683;49.028;12.064;2022-07-12T06:55:54;97962.38;;;19.34
19102;BMP280;9683;49.028;12.064;2022-07-12T06:58:22;97955.63;;;19.37
19102;BMP280;9683;49.028;12.064;2022-07-12T07:00:49;97957.00;;;19.39
19102;BMP280;9683;49.028;12.064;2022-07-12T07:03:15;97955.16;;;19.45
19102;BMP280;9683;49.028;12.064;2022-07-12T07:05:42;97955.19;;;19.50
19102;BMP280;9683;49.028;12.064;2022-07-12T07:08:10;97956.59;;;19.57
19102;BMP280;9683;49.028;12.064;2022-07-12T07:10:37;97955.78;;;19.62
19102;BMP280;9683;49.028;12.064;2022-07-12T07:13:03;97953.41;;;19.71
19102;BMP280;9683;49.028;12.064;2022-07-12T07:15:30;97956.69;;;19.78
19102;BMP280;9683;49.028;12.064;2022-07-12T07:17:56;97964.00;;;19.77
19102;BMP280;9683;49.028;12.064;2022-07-12T07:20:23;97962.38;;;19.81
19102;BMP280;9683;49.028;12.064;2022-07-12T07:22:50;97960.50;;;19.87
19102;BMP280;9683;49.028;12.064;2022-07-12T07:25:18;97965.41;;;19.95
19102;BMP280;9683;49.028;12.064;2022-07-12T07:27:45;97967.00;;;19.91
19102;BMP280;9683;49.028;12.064;2022-07-12T07:30:11;97970.28;;;19.98
19102;BMP280;9683;49.028;12.064;2022-07-12T07:32:56;97968.69;;;20.07
19102;BMP280;9683;49.028;12.064;2022-07-12T07:35:22;97966.28;;;20.16
19102;BMP280;9683;49.028;12.064;2022-07-12T07:37:49;97972.25;;;20.23
19102;BMP280;9683;49.028;12.064;2022-07-12T07:40:15;97969.31;;;20.29
19102;BMP280;9683;49.028;12.064;2022-07-12T07:42:43;97975.00;;;20.38
19102;BMP280;9683;49.028;12.064;2022-07-12T07:45:10;97969.63;;;20.43
19102;BMP280;9683;49.028;12.064;2022-07-12T07:47:43;97974.78;;;20.49
19102;BMP280;9683;49.028;12.064;2022-07-12T07:50:10;97969.88;;;20.46
19102;BMP280;9683;49.028;12.064;2022-07-12T07:52:36;97975.56;;;20.50
19102;BMP280;9683;49.028;12.064;2022-07-12T07:55:04;97971.81;;;20.56
19102;BMP280;9683;49.028;12.064;2022-07-12T07:57:30;97965.84;;;20.64
19102;BMP280;9683;49.028;12.064;2022-07-12T07:59:58;97966.13;;;20.73
19102;BMP280;9683;49.028;12.064;2022-07-12T08:02:25;97977.50;;;20.70
19102;BMP280;9683;49.028;12.064;2022-07-12T08:04:52;97965.59;;;20.81
19102;BMP280;9683;49.028;12.064;2022-07-12T08:07:18;97968.31;;;20.86
19102;BMP280;9683;49.028;12.064;2022-07-12T08:09:45;97971.84;;;20.91
19102;BMP280;9683;49.028;12.064;2022-07-12T08:12:11;97962.63;;;20.97
19102;BMP280;9683;49.028;12.064;2022-07-12T08:14:39;97964.78;;;21.05
19102;BMP280;9683;49.028;12.064;2022-07-12T08:17:07;97964.00;;;21.15
19102;BMP280;9683;49.028;12.064;2022-07-12T08:19:34;97964.81;;;21.16
19102;BMP280;9683;49.028;12.064;2022-07-12T08:22:00;97965.88;;;21.20
19102;BMP280;9683;49.028;12.064;2022-07-12T08:24:27;97964.50;;;21.27
19102;BMP280;9683;49.028;12.064;2022-07-12T08:26:54;97968.03;;;21.33
19102;BMP280;9683;49.028;12.064;2022-07-12T08:29:20;97974.25;;;21.33
19102;BMP280;9683;49.028;12.064;2022-07-12T08:31:47;97971.53;;;21.38
19102;BMP280;9683;49.028;12.064;2022-07-12T08:34:15;97973.66;;;21.52
19102;BMP280;9683;49.028;12.064;2022-07-12T08:36:42;97971.75;;;21.57
19102;BMP280;9683;49.028;12.064;2022-07-12T08:39:09;97974.72;;;21.66
19102;BMP280;9683;49.028;12.064;2022-07-12T08:41:36;97976.06;;;21.68
19102;BMP280;9683;49.028;12.064;2022-07-12T08:44:03;97969.28;;;21.71
19102;BMP280;9683;49.028;12.064;2022-07-12T08:46:29;97973.88;;;21.75
19102;BMP280;9683;49.028;12.064;2022-07-12T08:48:56;97963.81;;;21.81
19102;BMP280;9683;49.028;12.064;2022-07-12T08:51:24;97966.50;;;21.96
19102;BMP280;9683;49.028;12.064;2022-07-12T08:54:06;97968.63;;;22.09
19102;BMP280;9683;49.028;12.064;2022-07-12T08:56:34;97957.69;;;22.19
19102;BMP280;9683;49.028;12.064;2022-07-12T08:59:09;97962.22;;;22.39
19102;BMP280;9683;49.028;12.064;2022-07-12T09:01:41;97967.25;;;22.56
19102;BMP280;9683;49.028;12.064;2022-07-12T09:04:15;97957.41;;;22.70
19102;BMP280;9683;49.028;12.064;2022-07-12T09:06:43;97961.69;;;22.81
19102;BMP280;9683;49.028;12.064;2022-07-12T09:09:10;97957.22;;;22.90
19102;BMP280;9683;49.028;12.064;2022-07-12T09:11:38;97965.06;;;22.97
19102;BMP280;9683;49.028;12.064;2022-07-12T09:14:05;97964.53;;;22.95
19102;BMP280;9683;49.028;12.064;2022-07-12T09:16:33;97960.72;;;22.96
19102;BMP280;9683;49.028;12.064;2022-07-12T09:19:14;97958.56;;;22.98
19102;BMP280;9683;49.028;12.064;2022-07-12T09:21:50;97953.31;;;23.06
19102;BMP280;9683;49.028;12.064;2022-07-12T09:24:17;97969.00;;;23.14
19102;BMP280;9683;49.028;12.064;2022-07-12T09:26:45;97958.13;;;23.14
19102;BMP280;9683;49.028;12.064;2022-07-12T09:29:13;97973.94;;;23.07
19102;BMP280;9683;49.028;12.064;2022-07-12T09:31:42;97976.84;;;22.82
19102;BMP280;9683;49.028;12.064;2022-07-12T09:34:29;97965.59;;;22.60
19102;BMP280;9683;49.028;12.064;2022-07-12T09:37:14;97970.03;;;22.46
19102;BMP280;9683;49.028;12.064;2022-07-12T09:39:42;97972.41;;;22.52
19102;BMP280;9683;49.028;12.064;2022-07-12T09:42:10;97977.56;;;22.54
19102;BMP280;9683;49.028;12.064;2022-07-12T09:44:37;97973.75;;;22.60
19102;BMP280;9683;49.028;12.064;2022-07-12T09:47:07;97972.06;;;22.69
19102;BMP280;9683;49.028;12.064;2022-07-12T09:49:38;97973.38;;;22.76
19102;BMP280;9683;49.028;12.064;2022-07-12T09:52:05;97969.53;;;22.82
19102;BMP280;9683;49.028;12.064;2022-07-12T09:54:39;97971.94;;;22.89
19102;BMP280;9683;49.028;12.064;2022-07-12T09:57:13;97975.59;;;23.03
19102;BMP280;9683;49.028;12.064;2022-07-12T09:59:40;97966.31;;;23.09
19102;BMP280;9683;49.028;12.064;2022-07-12T10:02:07;97962.72;;;23.19
19102;BMP280;9683;49.028;12.064;2022-07-12T10:04:35;97960.41;;;23.31
19102;BMP280;9683;49.028;12.064;2022-07-12T10:07:03;97956.22;;;23.44
19102;BMP280;9683;49.028;12.064;2022-07-12T10:09:31;97965.06;;;23.54
19102;BMP280;9683;49.028;12.064;2022-07-12T10:11:59;97963.75;;;23.52
19102;BMP280;9683;49.028;12.064;2022-07-12T10:14:26;97958.28;;;23.57
19102;BMP280;9683;49.028;12.064;2022-07-12T10:16:53;97964.22;;;23.59
19102;BMP280;9683;49.028;12.064;2022-07-12T10:19:24;97966.47;;;23.52
19102;BMP280;9683;49.028;12.064;2022-07-12T10:21:52;97962.50;;;23.68
19102;BMP280;9683;49.028;12.064;2022-07-12T10:24:49;97955.69;;;23.65
19102;BMP280;9683;49.028;12.064;2022-07-12T10:27:34;97948.75;;;23.54
19102;BMP280;9683;49.028;12.064;2022-07-12T10:30:20;97956.34;;;23.57
19102;BMP280;9683;49.028;12.064;2022-07-12T10:32:48;97955.88;;;23.50
19102;BMP280;9683;49.028;12.064;2022-07-12T10:35:20;97952.34;;;23.50
19102;BMP280;9683;49.028;12.064;2022-07-12T10:38:18;97953.44;;;23.49
19102;BMP280;9683;49.028;12.064;2022-07-12T10:40:46;97943.88;;;23.56
19102;BMP280;9683;49.028;12.064;2022-07-12T10:43:32;97947.78;;;23.69
19102;BMP280;9683;49.028;12.064;2022-07-12T10:46:19;97950.44;;;23.74
19102;BMP280;9683;49.028;12.064;2022-07-12T10:48:46;97948.69;;;23.83
19102;BMP280;9683;49.028;12.064;2022-07-12T10:51:14;97953.97;;;23.98
19102;BMP280;9683;49.028;12.064;2022-07-12T10:53:42;97947.00;;;24.11
19102;BMP280;9683;49.028;12.064;2022-07-12T10:56:19;97944.22;;;24.16
19102;BMP280;9683;49.028;12.064;2022-07-12T10:58:49;97944.91;;;24.27
19102;BMP280;9683;49.028;12.064;2022-07-12T11:01:19;97945.34;;;24.15
19102;BMP280;9683;49.028;12.064;2022-07-12T11:03:46;97949.81;;;24.25
19102;BMP280;9683;49.028;12.064;2022-07-12T11:06:16;97943.34;;;24.39
19102;BMP280;9683;49.028;12.064;2022-07-12T11:08:53;97942.69;;;24.47
19102;BMP280;9683;49.028;12.064;2022-07-12T11:11:21;97951.88;;;24.33
19102;BMP280;9683;49.028;12.064;2022-07-12T11:13:50;97951.00;;;24.18
19102;BMP280;9683;49.028;12.064;2022-07-12T11:16:17;97949.72;;;24.11
19102;BMP280;9683;49.028;12.064;2022-07-12T11:18:44;97945.88;;;24.12
19102;BMP280;9683;49.028;12.064;2022-07-12T11:21:11;97945.59;;;24.13
19102;BMP280;9683;49.028;12.064;2022-07-12T11:23:38;97938.34;;;24.28
19102;BMP280;9683;49.028;12.064;2022-07-12T11:26:07;97935.41;;;24.43
19102;BMP280;9683;49.028;12.064;2022-07-12T11:28:33;97931.13;;;24.55
19102;BMP280;9683;49.028;12.064;2022-07-12T11:31:06;97928.66;;;24.73
19102;BMP280;9683;49.028;12.064;2022-07-12T11:33:35;97922.75;;;24.84
19102;BMP280;9683;49.028;12.064;2022-07-12T11:36:04;97928.06;;;24.94
19102;BMP280;9683;49.028;12.064;2022-07-12T11:38:32;97929.97;;;24.94
19102;BMP280;9683;49.028;12.064;2022-07-12T11:40:59;97928.34;;;24.93
19102;BMP280;9683;49.028;12.064;2022-07-12T11:43:27;97927.13;;;24.85
19102;BMP280;9683;49.028;12.064;2022-07-12T11:45:54;97927.50;;;24.79
19102;BMP280;9683;49.028;12.064;2022-07-12T11:48:23;97927.78;;;24.77
19102;BMP280;9683;49.028;12.064;2022-07-12T11:50:51;97919.00;;;24.80
19102;BMP280;9683;49.028;12.064;2022-07-12T11:53:19;97932.09;;;24.97
19102;BMP280;9683;49.028;12.064;2022-07-12T11:55:47;97924.69;;;25.16
19102;BMP280;9683;49.028;12.064;2022-07-12T11:58:15;97926.22;;;25.36
19102;BMP280;9683;49.028;12.064;2022-07-12T12:00:42;97914.63;;;25.44
19102;BMP280;9683;49.028;12.064;2022-07-12T12:03:09;97928.66;;;25.51
19102;BMP280;9683;49.028;12.064;2022-07-12T12:05:37;97945.59;;;25.21
19102;BMP280;9683;49.028;12.064;2022-07-12T12:08:04;97947.69;;;25.10
19102;BMP280;9683;49.028;12.064;2022-07-12T12:10:31;97951.41;;;24.82
19102;BMP280;9683;49.028;12.064;2022-07-12T12:12:59;97930.72;;;24.99
19102;BMP280;9683;49.028;12.064;2022-07-12T12:15:28;97933.44;;;24.99
19102;BMP280;9683;49.028;12.064;2022-07-12T12:17:56;97917.22;;;25.22
19102;BMP280;9683;49.028;12.064;2022-07-12T12:20:25;97910.88;;;25.40
19102;BMP280;9683;49.028;12.064;2022-07-12T12:22:55;97922.72;;;25.49
19102;BMP280;9683;49.028;12.064;2022-07-12T12:25:22;97923.00;;;25.47
19102;BMP280;9683;49.028;12.064;2022-07-12T12:27:53;97926.28;;;25.17
19102;BMP280;9683;49.028;12.064;2022-07-12T12:30:20;97913.66;;;25.07
19102;BMP280;9683;49.028;12.064;2022-07-12T12:32:49;97920.44;;;25.10
19102;BMP280;9683;49.028;12.064;2022-07-12T12:35:19;97924.38;;;25.18
19102;BMP280;9683;49.028;12.064;2022-07-12T12:37:54;97929.03;;;25.31
19102;BMP280;9683;49.028;12.064;2022-07-12T12:40:23;97918.75;;;25.41
19102;BMP280;9683;49.028;12.064;2022-07-12T12:42:50;97916.47;;;25.62
19102;BMP280;9683;49.028;12.064;2022-07-12T12:45:21;97924.34;;;25.77
19102;BMP280;9683;49.028;12.064;2022-07-12T12:47:54;97917.50;;;25.80
19102;BMP280;9683;49.028;12.064;2022-07-12T12:50:36;97927.16;;;25.99
19102;BMP280;9683;49.028;12.064;2022-07-12T12:53:11;97924.63;;;26.03
19102;BMP280;9683;49.028;12.064;2022-07-12T12:55:38;97916.53;;;25.98
19102;BMP280;9683;49.028;12.064;2022-07-12T12:58:05;97922.94;;;25.80
19102;BMP280;9683;49.028;12.064;2022-07-12T13:00:32;97909.19;;;25.71
19102;BMP280;9683;49.028;12.064;2022-07-12T13:02:58;97915.28;;;25.54
19102;BMP280;9683;49.028;12.064;2022-07-12T13:05:27;97923.13;;;25.56
19102;BMP280;9683;49.028;12.064;2022-07-12T13:07:54;97917.59;;;25.61
19102;BMP280;9683;49.028;12.064;2022-07-12T13:10:22;97905.03;;;25.87
19102;BMP280;9683;49.028;12.064;2022-07-12T13:12:50;97905.63;;;25.98
19102;BMP280;9683;49.028;12.064;2022-07-12T13:15:17;97916.50;;;26.12
19102;BMP280;9683;49.028;12.064;2022-07-12T13:17:44;97918.13;;;26.26
19102;BMP280;9683;49.028;12.064;2022-07-12T13:20:11;97929.75;;;26.32
19102;BMP280;9683;49.028;12.064;2022-07-12T13:22:39;97914.19;;;26.55
19102;BMP280;9683;49.028;12.064;2022-07-12T13:25:07;97913.88;;;26.56
19102;BMP280;9683;49.028;12.064;2022-07-12T13:27:36;97909.41;;;26.38
19102;BMP280;9683;49.028;12.064;2022-07-12T13:30:04;97912.31;;;26.41
19102;BMP280;9683;49.028;12.064;2022-07-12T13:32:32;97921.97;;;26.25
19102;BMP280;9683;49.028;12.064;2022-07-12T13:34:58;97916.63;;;26.07
19102;BMP280;9683;49.028;12.064;2022-07-12T13:37:27;97921.34;;;26.15
19102;BMP280;9683;49.028;12.064;2022-07-12T13:39:54;97917.72;;;26.33
19102;BMP280;9683;49.028;12.064;2022-07-12T13:42:44;97916.31;;;26.58
19102;BMP280;9683;49.028;12.064;2022-07-12T13:45:13;97915.75;;;26.69
19102;BMP280;9683;49.028;12.064;2022-07-12T13:47:40;97912.88;;;26.74
19102;BMP280;9683;49.028;12.064;2022-07-12T13:50:08;97908.19;;;26.88
19102;BMP280;9683;49.028;12.064;2022-07-12T13:52:35;97918.50;;;26.92
19102;BMP280;9683;49.028;12.064;2022-07-12T13:55:02;97921.53;;;26.90
19102;BMP280;9683;49.028;12.064;2022-07-12T13:57:29;97914.13;;;27.13
19102;BMP280;9683;49.028;12.064;2022-07-12T13:59:58;97910.06;;;27.41
19102;BMP280;9683;49.028;12.064;2022-07-12T14:02:25;97928.66;;;27.53
19102;BMP280;9683;49.028;12.064;2022-07-12T14:04:52;97923.50;;;27.20
19102;BMP280;9683;49.028;12.064;2022-07-12T14:07:19;97918.44;;;27.05
19102;BMP280;9683;49.028;12.064;2022-07-12T14:09:45;97914.94;;;27.13
19102;BMP280;9683;49.028;12.064;2022-07-12T14:12:12;97917.25;;;27.28
19102;BMP280;9683;49.028;12.064;2022-07-12T14:14:39;97907.13;;;27.60